Alexandroupoli Airport

Airport
ICAO code: 
LGAL
IATA Code: 
AXD
Summary
ICAO Region: 
EUR
Territory: 
Location: 
Apalos, Eastern Macedonia and Thrace
Serving: 
Alexandroupolis
Elevation: 
24 ft
Coordinates: 
Aerial View: 
40° 51' 22.68" N, 25° 57' 19.224" E
Metar
Observation
LGAL 281650Z 02015KT 9999 FEW025 15/12 Q1006
Station
Alexandroupoli Airport
Date/Time
2021-11-28 16:50:00
Wind direction
20°
Wind speed
15 kts
Lowest cloud amount
few clouds
Temperature
15°C
Dew point
12°C
Humidity
82%
QNH
1006 hPa
Weather condition
n/a

Alexandroupoli Airport "Dimokritos" or "Democritus" is an airport 5 nm east of Alexandroupolis in northeastern Greece.

Climatology

Warm mediterranean climate (Köppen climate classification Csa)

Runways

Designator Length Width Surface Rops
7/25 2582 45 ASP No/No
Airport map: 
Aerial View: 

SKYbrary Partners:

Safety knowledge contributed by: